createdAt,value
2023-05-18T00:02:09.167Z,102310.97
2023-05-18T00:05:11.097Z,102315.88
2023-05-18T00:08:12.414Z,102320.09
2023-05-18T00:11:13.974Z,102323.22
2023-05-18T00:14:15.374Z,102319.06
2023-05-18T00:17:17.642Z,102324.75
2023-05-18T00:20:21.466Z,102334.00
2023-05-18T00:23:24.206Z,102329.13
2023-05-18T00:26:26.139Z,102329.91
2023-05-18T00:29:27.798Z,102334.94
2023-05-18T00:32:30.166Z,102336.97
2023-05-18T00:35:32.237Z,102342.84
2023-05-18T00:38:34.196Z,102328.47
2023-05-18T00:41:35.625Z,102336.19
2023-05-18T00:44:37.144Z,102337.88
2023-05-18T00:47:39.331Z,102335.25
2023-05-18T00:50:40.740Z,102349.22
2023-05-18T00:53:44.386Z,102347.19
2023-05-18T00:56:47.667Z,102346.66
2023-05-18T00:59:49.297Z,102346.91
2023-05-18T01:02:52.209Z,102356.13
2023-05-18T01:05:55.158Z,102351.47
2023-05-18T01:08:56.716Z,102356.78
2023-05-18T01:12:05.026Z,102351.50
2023-05-18T01:15:10.209Z,102359.09
2023-05-18T01:18:21.021Z,102364.25
2023-05-18T01:21:33.236Z,102350.09
2023-05-18T01:24:42.096Z,102359.97
2023-05-18T01:27:46.666Z,102360.81
2023-05-18T01:30:48.635Z,102358.06
2023-05-18T01:33:50.210Z,102360.84
2023-05-18T01:36:51.716Z,102357.13
2023-05-18T01:39:53.123Z,102360.34
2023-05-18T01:43:03.402Z,102353.56
2023-05-18T01:46:13.455Z,102359.81
2023-05-18T01:49:20.575Z,102359.16
2023-05-18T01:52:29.253Z,102355.22
2023-05-18T01:55:31.890Z,102362.66
2023-05-18T01:58:35.367Z,102360.91
2023-05-18T02:01:36.787Z,102359.88
2023-05-18T02:04:38.326Z,102365.78
2023-05-18T02:07:40.225Z,102365.13
2023-05-18T02:10:41.610Z,102366.91
2023-05-18T02:13:43.760Z,102366.72
2023-05-18T02:16:46.472Z,102368.44
2023-05-18T02:19:47.988Z,102371.84
2023-05-18T02:22:49.902Z,102370.03
2023-05-18T02:25:51.409Z,102373.78
2023-05-18T02:28:53.570Z,102374.72
2023-05-18T02:31:54.991Z,102371.34
2023-05-18T02:34:56.543Z,102372.31
2023-05-18T02:37:57.861Z,102380.09
2023-05-18T02:40:59.303Z,102379.84
2023-05-18T02:44:02.627Z,102380.28
2023-05-18T02:47:04.432Z,102388.09
2023-05-18T02:50:07.070Z,102391.88
2023-05-18T02:53:08.372Z,102390.19
2023-05-18T02:56:11.686Z,102398.25
2023-05-18T02:59:14.653Z,102392.72
2023-05-18T03:02:16.087Z,102401.09
2023-05-18T03:05:22.967Z,102393.13
2023-05-18T03:08:26.183Z,102390.00
2023-05-18T03:11:27.495Z,102398.06
2023-05-18T03:14:29.480Z,102397.69
2023-05-18T03:17:30.996Z,102400.06
2023-05-18T03:20:32.696Z,102394.31
2023-05-18T03:23:34.167Z,102398.00
2023-05-18T03:26:35.637Z,102399.59
2023-05-18T03:29:37.654Z,102393.00
2023-05-18T03:32:40.875Z,102394.03
2023-05-18T03:35:42.346Z,102400.31
2023-05-18T03:38:45.110Z,102397.72
2023-05-18T03:41:46.707Z,102406.63
2023-05-18T03:44:48.671Z,102409.72
2023-05-18T03:47:50.721Z,102407.81
2023-05-18T03:50:52.359Z,102415.31
2023-05-18T03:53:53.666Z,102414.78
2023-05-18T03:56:55.234Z,102415.03
2023-05-18T03:59:57.413Z,102418.50
2023-05-18T04:02:59.854Z,102426.19
2023-05-18T04:06:01.262Z,102418.69
2023-05-18T04:09:04.083Z,102422.81
2023-05-18T04:12:06.238Z,102426.00
2023-05-18T04:15:09.552Z,102425.78
2023-05-18T04:18:12.547Z,102426.06
2023-05-18T04:21:15.298Z,102430.25
2023-05-18T04:24:16.669Z,102433.00
2023-05-18T04:27:19.698Z,102429.94
2023-05-18T04:30:22.700Z,102435.22
2023-05-18T04:33:24.260Z,102428.84
2023-05-18T04:36:29.916Z,102429.81
2023-05-18T04:39:32.041Z,102435.41
2023-05-18T04:42:34.886Z,102438.81
2023-05-18T04:45:37.086Z,102443.72
2023-05-18T04:48:38.528Z,102441.84
2023-05-18T04:51:41.321Z,102451.22
2023-05-18T04:54:42.786Z,102447.16
2023-05-18T04:57:44.263Z,102451.50
2023-05-18T05:00:46.250Z,102447.38
2023-05-18T05:03:47.851Z,102453.53
2023-05-18T05:06:49.298Z,102455.06
2023-05-18T05:09:50.919Z,102465.03
2023-05-18T05:12:52.487Z,102457.06
2023-05-18T05:15:55.317Z,102456.31
2023-05-18T05:18:57.486Z,102450.31
2023-05-18T05:21:59.832Z,102450.66
2023-05-18T05:25:03.851Z,102449.03
2023-05-18T05:28:07.462Z,102446.19
2023-05-18T05:31:10.022Z,102454.81
2023-05-18T05:34:13.019Z,102453.97
2023-05-18T05:37:14.885Z,102458.28
2023-05-18T05:40:16.451Z,102457.72
2023-05-18T05:43:17.851Z,102460.81
2023-05-18T05:46:20.054Z,102462.97
2023-05-18T05:49:21.538Z,102465.84
2023-05-18T05:52:22.855Z,102479.16
2023-05-18T05:55:24.536Z,102472.69
2023-05-18T05:58:25.847Z,102477.53
2023-05-18T06:01:28.402Z,102479.44
2023-05-18T06:04:30.111Z,102470.31
2023-05-18T06:07:31.495Z,102477.91
2023-05-18T06:10:33.004Z,102473.53
2023-05-18T06:13:34.471Z,102480.13
2023-05-18T06:16:36.649Z,102476.44
2023-05-18T06:19:38.120Z,102469.13
2023-05-18T06:22:39.502Z,102469.00
2023-05-18T06:25:40.980Z,102471.94
2023-05-18T06:28:42.700Z,102468.75
2023-05-18T06:31:45.069Z,102475.34
2023-05-18T06:34:46.583Z,102471.53
2023-05-18T06:37:47.932Z,102475.28
2023-05-18T06:40:49.455Z,102477.69
2023-05-18T06:43:50.835Z,102481.59
2023-05-18T06:46:53.024Z,102477.25
2023-05-18T06:49:54.371Z,102478.81
2023-05-18T06:52:55.816Z,102485.03
2023-05-18T06:55:57.335Z,102486.03
2023-05-18T06:59:00.360Z,102480.31
2023-05-18T07:02:03.162Z,102483.47
2023-05-18T07:05:08.156Z,102491.19
2023-05-18T07:08:09.703Z,102487.72
2023-05-18T07:11:11.494Z,102482.22
2023-05-18T07:14:12.828Z,102475.84
2023-05-18T07:17:15.241Z,102474.03
2023-05-18T07:20:16.609Z,102469.78
2023-05-18T07:23:17.969Z,102477.56
2023-05-18T07:26:19.358Z,102470.16
2023-05-18T07:29:20.726Z,102468.53
2023-05-18T07:32:23.042Z,102469.81
2023-05-18T07:35:25.663Z,102471.41
2023-05-18T07:38:27.496Z,102468.91
2023-05-18T07:41:30.514Z,102466.00
2023-05-18T07:44:32.015Z,102469.84
2023-05-18T07:47:34.189Z,102472.03
2023-05-18T07:50:36.078Z,102469.47
2023-05-18T07:53:37.732Z,102456.81
2023-05-18T07:56:39.910Z,102468.19
2023-05-18T07:59:41.513Z,102472.75
2023-05-18T08:02:44.395Z,102465.28
2023-05-18T08:05:46.062Z,102475.50
2023-05-18T08:08:47.729Z,102470.75
2023-05-18T08:11:50.346Z,102477.44
2023-05-18T08:14:51.961Z,102477.63
2023-05-18T08:17:54.388Z,102474.94
2023-05-18T08:20:56.228Z,102478.22
2023-05-18T08:23:57.722Z,102478.94
2023-05-18T08:26:59.292Z,102482.03
2023-05-18T08:30:01.109Z,102486.72
2023-05-18T08:33:03.544Z,102480.81
2023-05-18T08:36:05.713Z,102486.53
2023-05-18T08:39:08.119Z,102489.13
2023-05-18T08:42:16.258Z,102472.66
2023-05-18T08:45:24.293Z,102480.88
2023-05-18T08:48:28.403Z,102475.25
2023-05-18T08:51:34.044Z,102476.53
2023-05-18T08:54:37.011Z,102475.91
2023-05-18T08:57:39.359Z,102484.44
2023-05-18T09:00:41.028Z,102475.47
2023-05-18T09:03:44.191Z,102469.53
2023-05-18T09:06:47.535Z,102479.00
2023-05-18T09:09:49.463Z,102472.22
2023-05-18T09:12:51.955Z,102476.19
2023-05-18T09:15:53.475Z,102477.78
2023-05-18T09:18:55.502Z,102480.44
2023-05-18T09:21:56.972Z,102468.94
2023-05-18T09:24:58.935Z,102478.31
2023-05-18T09:28:00.283Z,102469.16
2023-05-18T09:31:01.807Z,102473.06
2023-05-18T09:34:05.671Z,102475.53
2023-05-18T09:37:08.956Z,102463.97
2023-05-18T09:40:11.163Z,102460.72
2023-05-18T09:43:12.480Z,102465.53
2023-05-18T09:46:14.404Z,102459.19
2023-05-18T09:49:22.145Z,102453.69
2023-05-18T09:52:23.676Z,102451.56
2023-05-18T09:55:25.412Z,102445.81
2023-05-18T09:58:31.496Z,102449.44
2023-05-18T10:01:34.122Z,102460.41
2023-05-18T10:04:37.096Z,102462.56
2023-05-18T10:07:43.366Z,102449.97
2023-05-18T10:10:46.587Z,102449.72
2023-05-18T10:13:53.800Z,102440.47
2023-05-18T10:17:03.576Z,102436.50
2023-05-18T10:20:18.556Z,102435.53
2023-05-18T10:23:21.420Z,102423.94
2023-05-18T10:26:28.210Z,102420.81
2023-05-18T10:29:31.480Z,102434.56
2023-05-18T10:32:36.345Z,102431.38
2023-05-18T10:35:38.885Z,102430.28
2023-05-18T10:38:44.668Z,102420.53
2023-05-18T10:41:47.992Z,102423.44
2023-05-18T10:44:52.260Z,102424.53
2023-05-18T10:47:56.876Z,102422.72
2023-05-18T10:50:58.940Z,102409.72
2023-05-18T10:54:11.981Z,102411.66
2023-05-18T10:57:16.012Z,102407.06
2023-05-18T11:00:19.410Z,102404.41
2023-05-18T11:03:21.612Z,102400.13
2023-05-18T11:06:24.500Z,102409.03
2023-05-18T11:09:28.069Z,102403.34
2023-05-18T11:12:33.238Z,102411.41
2023-05-18T11:16:06.260Z,102400.56
2023-05-18T11:19:10.698Z,102398.97
2023-05-18T11:22:12.838Z,102396.97
2023-05-18T11:25:36.540Z,102399.03
2023-05-18T11:28:43.233Z,102386.63
2023-05-18T11:31:45.108Z,102388.59
2023-05-18T11:34:50.649Z,102393.00
2023-05-18T11:37:53.209Z,102389.22
2023-05-18T11:41:00.073Z,102384.91
2023-05-18T11:44:17.982Z,102386.78
2023-05-18T11:47:19.593Z,102387.56
2023-05-18T11:50:21.194Z,102398.91
2023-05-18T11:53:24.202Z,102394.31
2023-05-18T11:56:26.521Z,102390.28
2023-05-18T11:59:32.216Z,102389.13
2023-05-18T12:02:34.488Z,102389.41
2023-05-18T12:05:36.451Z,102398.91
2023-05-18T12:08:43.229Z,102387.75
2023-05-18T12:11:44.890Z,102386.88
2023-05-18T12:14:57.603Z,102380.78
2023-05-18T12:17:59.191Z,102381.06
2023-05-18T12:21:04.024Z,102383.28
2023-05-18T12:24:06.816Z,102377.44
2023-05-18T12:27:09.985Z,102367.41
2023-05-18T12:30:13.077Z,102376.03
2023-05-18T12:33:14.600Z,102375.72
2023-05-18T12:36:16.291Z,102362.44
2023-05-18T12:39:18.323Z,102362.91
2023-05-18T12:42:19.948Z,102361.91
2023-05-18T12:45:23.474Z,102360.53
2023-05-18T12:48:25.869Z,102361.47
2023-05-18T12:51:32.451Z,102347.75
2023-05-18T12:54:34.517Z,102351.50
2023-05-18T12:57:40.914Z,102349.00
2023-05-18T13:00:43.348Z,102350.22
2023-05-18T13:03:44.781Z,102355.75
2023-05-18T13:06:47.717Z,102341.41
2023-05-18T13:09:49.906Z,102345.53
2023-05-18T13:12:52.163Z,102351.63
2023-05-18T13:15:53.601Z,102357.03
2023-05-18T13:19:00.489Z,102352.41
2023-05-18T13:22:02.026Z,102349.31
2023-05-18T13:25:05.044Z,102345.69
2023-05-18T13:28:07.023Z,102345.84
2023-05-18T13:31:09.372Z,102349.59
2023-05-18T13:34:12.030Z,102341.28
2023-05-18T13:37:14.774Z,102338.19
2023-05-18T13:40:18.227Z,102342.22
2023-05-18T13:43:19.598Z,102337.59
2023-05-18T13:46:21.208Z,102337.91
2023-05-18T13:49:22.720Z,102346.00
2023-05-18T13:52:24.104Z,102329.03
2023-05-18T13:55:26.280Z,102331.41
2023-05-18T13:58:27.679Z,102330.91
2023-05-18T14:01:31.860Z,102326.22
2023-05-18T14:04:33.406Z,102325.84
2023-05-18T14:07:34.821Z,102323.63
2023-05-18T14:10:36.952Z,102319.81
2023-05-18T14:13:38.273Z,102312.84
2023-05-18T14:16:39.859Z,102308.59
2023-05-18T14:19:41.415Z,102324.69
2023-05-18T14:22:42.758Z,102311.47
2023-05-18T14:25:45.355Z,102308.09
2023-05-18T14:28:46.671Z,102309.72
2023-05-18T14:31:48.091Z,102300.72
2023-05-18T14:34:51.387Z,102302.72
2023-05-18T14:37:52.739Z,102299.41
2023-05-18T14:40:55.035Z,102297.44
2023-05-18T14:43:56.439Z,102304.50
2023-05-18T14:46:58.032Z,102295.88
2023-05-18T14:49:59.532Z,102299.75
2023-05-18T14:53:00.827Z,102298.03
2023-05-18T14:56:07.975Z,102303.03
2023-05-18T14:59:09.322Z,102289.34
2023-05-18T15:02:10.804Z,102298.81
2023-05-18T15:05:12.279Z,102296.31
2023-05-18T15:08:13.654Z,102301.59
2023-05-18T15:11:15.672Z,102299.75
2023-05-18T15:14:17.007Z,102302.53
2023-05-18T15:17:18.388Z,102290.03
2023-05-18T15:20:19.988Z,102293.09
2023-05-18T15:23:21.345Z,102297.53
2023-05-18T15:26:23.472Z,102291.41
2023-05-18T15:29:25.358Z,102301.16
2023-05-18T15:32:29.775Z,102293.66
2023-05-18T15:35:31.659Z,102298.03
2023-05-18T15:38:33.008Z,102286.69
2023-05-18T15:41:35.331Z,102290.53
2023-05-18T15:44:36.838Z,102283.56
2023-05-18T15:47:38.351Z,102280.53
2023-05-18T15:50:39.723Z,102278.84
2023-05-18T15:53:42.473Z,102275.78
2023-05-18T15:56:44.512Z,102286.44
2023-05-18T15:59:45.825Z,102269.94
2023-05-18T16:02:47.347Z,102269.91
2023-05-18T16:05:49.447Z,102269.63
2023-05-18T16:08:50.877Z,102272.72
2023-05-18T16:11:52.998Z,102267.72
2023-05-18T16:14:54.367Z,102269.41
2023-05-18T16:17:55.957Z,102274.69
2023-05-18T16:20:57.546Z,102271.31
2023-05-18T16:23:59.372Z,102270.16
2023-05-18T16:27:01.570Z,102275.41
2023-05-18T16:30:03.328Z,102272.06
2023-05-18T16:33:04.829Z,102269.81
2023-05-18T16:36:07.168Z,102274.00
2023-05-18T16:39:08.671Z,102287.91
2023-05-18T16:42:11.712Z,102277.91
2023-05-18T16:45:13.065Z,102271.19
2023-05-18T16:48:14.525Z,102269.47
2023-05-18T16:51:15.925Z,102272.84
2023-05-18T16:54:17.401Z,102269.38
2023-05-18T16:57:20.671Z,102274.56
2023-05-18T17:00:22.066Z,102275.19
2023-05-18T17:03:24.007Z,102277.97
2023-05-18T17:06:25.734Z,102281.81
2023-05-18T17:09:27.234Z,102281.16
2023-05-18T17:12:29.766Z,102270.19
2023-05-18T17:15:31.809Z,102276.00
2023-05-18T17:18:33.625Z,102270.75
2023-05-18T17:21:35.070Z,102275.78
2023-05-18T17:24:36.736Z,102275.16
2023-05-18T17:27:39.277Z,102275.16
2023-05-18T17:30:40.603Z,102270.09
2023-05-18T17:33:46.357Z,102273.88
2023-05-18T17:36:48.127Z,102276.06
2023-05-18T17:39:49.646Z,102261.75
2023-05-18T17:42:51.850Z,102274.97
2023-05-18T17:45:53.270Z,102265.63
2023-05-18T17:48:55.227Z,102268.38
2023-05-18T17:51:57.051Z,102271.66
2023-05-18T17:54:58.575Z,102276.25
2023-05-18T17:58:01.662Z,102282.41
2023-05-18T18:01:03.273Z,102291.16
2023-05-18T18:04:05.098Z,102281.31
2023-05-18T18:07:06.487Z,102285.50
2023-05-18T18:10:08.826Z,102290.28
2023-05-18T18:13:10.830Z,102288.16
2023-05-18T18:16:12.430Z,102294.47
2023-05-18T18:19:14.311Z,102289.69
2023-05-18T18:22:15.673Z,102293.75
2023-05-18T18:25:17.155Z,102290.56
2023-05-18T18:28:19.112Z,102292.91
2023-05-18T18:31:20.459Z,102293.34
2023-05-18T18:34:21.873Z,102294.53
2023-05-18T18:37:23.334Z,102297.72
2023-05-18T18:40:24.992Z,102293.53
2023-05-18T18:43:27.428Z,102291.03
2023-05-18T18:46:28.959Z,102299.28
2023-05-18T18:49:30.585Z,102295.97
2023-05-18T18:52:31.921Z,102301.91
2023-05-18T18:55:33.617Z,102304.84
2023-05-18T18:58:36.039Z,102310.66
2023-05-18T19:01:37.726Z,102312.22
2023-05-18T19:04:39.203Z,102317.78
2023-05-18T19:07:40.742Z,102320.44
2023-05-18T19:10:45.051Z,102324.16
2023-05-18T19:13:47.041Z,102324.03
2023-05-18T19:16:48.720Z,102331.34
2023-05-18T19:19:51.480Z,102333.47
2023-05-18T19:22:52.991Z,102331.94
2023-05-18T19:25:54.397Z,102336.72
2023-05-18T19:28:56.566Z,102343.88
2023-05-18T19:31:58.258Z,102340.75
2023-05-18T19:34:59.634Z,102342.06
2023-05-18T19:38:01.725Z,102336.44
2023-05-18T19:41:03.113Z,102340.25
2023-05-18T19:44:05.174Z,102341.06
2023-05-18T19:47:07.205Z,102342.56
2023-05-18T19:50:09.617Z,102340.13
2023-05-18T19:53:11.046Z,102352.78
2023-05-18T19:56:12.621Z,102361.88
2023-05-18T19:59:14.903Z,102360.63
2023-05-18T20:02:16.321Z,102362.78
2023-05-18T20:05:17.930Z,102375.41
2023-05-18T20:08:19.499Z,102374.94
2023-05-18T20:11:20.968Z,102367.97
2023-05-18T20:14:23.322Z,102374.03
2023-05-18T20:17:25.426Z,102376.25
2023-05-18T20:20:29.630Z,102387.03
2023-05-18T20:23:31.004Z,102378.75
2023-05-18T20:26:32.473Z,102380.38
2023-05-18T20:29:34.417Z,102382.28
2023-05-18T20:32:35.913Z,102373.31
2023-05-18T20:35:37.329Z,102388.94
2023-05-18T20:38:38.901Z,102389.56
2023-05-18T20:41:40.970Z,102385.75
2023-05-18T20:44:42.975Z,102392.88
2023-05-18T20:47:44.694Z,102397.59
2023-05-18T20:50:45.998Z,102394.97
2023-05-18T20:53:47.368Z,102390.38
2023-05-18T20:56:50.530Z,102387.66
2023-05-18T20:59:52.539Z,102401.16
2023-05-18T21:02:54.165Z,102385.34
2023-05-18T21:05:55.803Z,102390.06
2023-05-18T21:08:57.379Z,102381.81
2023-05-18T21:11:59.002Z,102388.88
2023-05-18T21:15:01.213Z,102388.13
2023-05-18T21:18:02.907Z,102389.16
2023-05-18T21:21:04.422Z,102381.22
2023-05-18T21:24:06.209Z,102397.03
2023-05-18T21:27:07.636Z,102390.84
2023-05-18T21:30:11.838Z,102393.59
2023-05-18T21:33:13.418Z,102392.53
2023-05-18T21:36:14.914Z,102399.09
2023-05-18T21:39:16.367Z,102395.88
2023-05-18T21:42:17.740Z,102400.03
2023-05-18T21:45:21.897Z,102397.78
2023-05-18T21:48:23.227Z,102393.16
2023-05-18T21:51:24.842Z,102396.22
2023-05-18T21:54:29.698Z,102397.19
2023-05-18T21:57:33.209Z,102396.28
2023-05-18T22:00:36.995Z,102393.09
2023-05-18T22:03:39.042Z,102387.63
2023-05-18T22:06:40.711Z,102385.78
2023-05-18T22:09:42.061Z,102387.63
2023-05-18T22:12:43.602Z,102387.03
2023-05-18T22:15:45.942Z,102391.31
2023-05-18T22:18:47.308Z,102397.06
2023-05-18T22:21:48.776Z,102393.44
2023-05-18T22:24:50.158Z,102387.75
2023-05-18T22:27:52.087Z,102388.03
2023-05-18T22:30:54.237Z,102393.28
2023-05-18T22:33:55.600Z,102390.38
2023-05-18T22:36:57.063Z,102388.28
2023-05-18T22:39:58.388Z,102396.81
2023-05-18T22:42:59.833Z,102391.53
2023-05-18T22:46:01.861Z,102385.59
2023-05-18T22:49:04.840Z,102390.88
2023-05-18T22:52:07.472Z,102393.84
2023-05-18T22:55:12.537Z,102389.19
2023-05-18T22:58:14.037Z,102392.41
2023-05-18T23:01:16.206Z,102384.81
2023-05-18T23:04:18.961Z,102386.75
2023-05-18T23:07:21.486Z,102383.63
2023-05-18T23:10:25.582Z,102376.66
2023-05-18T23:13:27.129Z,102381.34
2023-05-18T23:16:29.216Z,102384.97
2023-05-18T23:19:31.052Z,102378.84
2023-05-18T23:22:32.878Z,102380.53
2023-05-18T23:25:34.305Z,102386.09
2023-05-18T23:28:36.025Z,102384.41
2023-05-18T23:31:38.257Z,102381.03
2023-05-18T23:34:40.761Z,102381.72
2023-05-18T23:37:42.437Z,102378.16
2023-05-18T23:40:44.716Z,102374.34
2023-05-18T23:43:46.695Z,102378.16
2023-05-18T23:46:49.396Z,102378.16
2023-05-18T23:49:51.347Z,102372.06
2023-05-18T23:52:53.837Z,102379.03
2023-05-18T23:55:57.026Z,102379.88
2023-05-18T23:59:01.046Z,102378.22
